sensor_id;sensor_type;location;lat;lon;timestamp;P1;durP1;ratioP1;P2;durP2;ratioP2
7729;SDS011;3908;52.310;7.230;2023-10-31T10:07:38;110.17;;;105.07;;
7729;SDS011;3908;52.310;7.230;2023-10-31T10:10:28;89.30;;;85.03;;
7729;SDS011;3908;52.310;7.230;2023-10-31T10:13:20;64.57;;;61.50;;
7729;SDS011;3908;52.310;7.230;2023-10-31T10:16:08;52.80;;;49.97;;
7729;SDS011;3908;52.310;7.230;2023-10-31T10:19:13;62.87;;;59.97;;
7729;SDS011;3908;52.310;7.230;2023-10-31T10:29:48;103.97;;;99.43;;
7729;SDS011;3908;52.310;7.230;2023-10-31T10:32:42;123.90;;;118.53;;
7729;SDS011;3908;52.310;7.230;2023-10-31T10:35:30;126.90;;;121.40;;
7729;SDS011;3908;52.310;7.230;2023-10-31T10:38:19;147.93;;;141.27;;
7729;SDS011;3908;52.310;7.230;2023-10-31T10:41:06;148.97;;;142.13;;
7729;SDS011;3908;52.310;7.230;2023-10-31T10:43:56;109.57;;;104.67;;
7729;SDS011;3908;52.310;7.230;2023-10-31T11:46:19;98.67;;;93.87;;
7729;SDS011;3908;52.310;7.230;2023-10-31T11:49:06;97.53;;;92.97;;
7729;SDS011;3908;52.310;7.230;2023-10-31T11:51:53;92.73;;;88.10;;
7729;SDS011;3908;52.310;7.230;2023-10-31T11:54:40;88.37;;;84.13;;
7729;SDS011;3908;52.310;7.230;2023-10-31T11:57:29;78.30;;;74.60;;
7729;SDS011;3908;52.310;7.230;2023-10-31T12:00:20;53.57;;;51.00;;
7729;SDS011;3908;52.310;7.230;2023-10-31T12:03:20;60.97;;;58.13;;
7729;SDS011;3908;52.310;7.230;2023-10-31T12:06:08;61.60;;;58.47;;
7729;SDS011;3908;52.310;7.230;2023-10-31T12:08:59;73.60;;;70.00;;
7729;SDS011;3908;52.310;7.230;2023-10-31T12:11:47;67.40;;;64.40;;
7729;SDS011;3908;52.310;7.230;2023-10-31T12:14:33;65.73;;;62.77;;
7729;SDS011;3908;52.310;7.230;2023-10-31T12:17:26;57.47;;;54.67;;
7729;SDS011;3908;52.310;7.230;2023-10-31T12:20:15;55.47;;;52.77;;
7729;SDS011;3908;52.310;7.230;2023-10-31T12:23:03;47.50;;;45.10;;
7729;SDS011;3908;52.310;7.230;2023-10-31T12:25:50;61.67;;;58.20;;
7729;SDS011;3908;52.310;7.230;2023-10-31T12:28:42;99.90;;;94.83;;
7729;SDS011;3908;52.310;7.230;2023-10-31T12:31:29;114.83;;;109.73;;
7729;SDS011;3908;52.310;7.230;2023-10-31T12:34:16;120.03;;;114.83;;
7729;SDS011;3908;52.310;7.230;2023-10-31T12:37:05;104.47;;;99.80;;
7729;SDS011;3908;52.310;7.230;2023-10-31T12:39:55;97.17;;;92.93;;
7729;SDS011;3908;52.310;7.230;2023-10-31T12:42:49;76.17;;;72.67;;
7729;SDS011;3908;52.310;7.230;2023-10-31T12:45:36;61.93;;;59.13;;
7729;SDS011;3908;52.310;7.230;2023-10-31T12:48:26;58.40;;;55.70;;
7729;SDS011;3908;52.310;7.230;2023-10-31T12:51:13;52.33;;;49.83;;
7729;SDS011;3908;52.310;7.230;2023-10-31T12:54:02;50.73;;;48.23;;
7729;SDS011;3908;52.310;7.230;2023-10-31T12:56:49;42.97;;;40.87;;
7729;SDS011;3908;52.310;7.230;2023-10-31T12:59:36;38.10;;;36.20;;
7729;SDS011;3908;52.310;7.230;2023-10-31T13:02:24;40.00;;;38.10;;
7729;SDS011;3908;52.310;7.230;2023-10-31T13:05:12;41.00;;;38.87;;
7729;SDS011;3908;52.310;7.230;2023-10-31T13:07:59;44.33;;;42.20;;
7729;SDS011;3908;52.310;7.230;2023-10-31T13:10:51;49.83;;;47.53;;
7729;SDS011;3908;52.310;7.230;2023-10-31T13:16:13;55.40;;;52.90;;
7729;SDS011;3908;52.310;7.230;2023-10-31T13:19:12;62.03;;;59.20;;
7729;SDS011;3908;52.310;7.230;2023-10-31T13:22:07;51.73;;;49.33;;
7729;SDS011;3908;52.310;7.230;2023-10-31T13:24:56;54.23;;;51.53;;
7729;SDS011;3908;52.310;7.230;2023-10-31T13:27:50;47.53;;;45.43;;
7729;SDS011;3908;52.310;7.230;2023-10-31T13:30:38;36.43;;;34.73;;
7729;SDS011;3908;52.310;7.230;2023-10-31T13:33:26;36.93;;;35.33;;
7729;SDS011;3908;52.310;7.230;2023-10-31T13:36:13;41.07;;;39.00;;
7729;SDS011;3908;52.310;7.230;2023-10-31T13:39:06;40.07;;;38.10;;
7729;SDS011;3908;52.310;7.230;2023-10-31T13:41:54;34.70;;;32.80;;
7729;SDS011;3908;52.310;7.230;2023-10-31T14:00:12;40.90;;;38.90;;
7729;SDS011;3908;52.310;7.230;2023-10-31T14:03:01;40.67;;;38.67;;
7729;SDS011;3908;52.310;7.230;2023-10-31T14:05:48;45.27;;;42.83;;
7729;SDS011;3908;52.310;7.230;2023-10-31T14:08:34;42.73;;;40.40;;
7729;SDS011;3908;52.310;7.230;2023-10-31T14:11:21;51.17;;;48.63;;
7729;SDS011;3908;52.310;7.230;2023-10-31T14:14:08;52.53;;;50.03;;
7729;SDS011;3908;52.310;7.230;2023-10-31T14:16:57;48.83;;;46.53;;
7729;SDS011;3908;52.310;7.230;2023-10-31T14:19:44;42.00;;;39.97;;
7729;SDS011;3908;52.310;7.230;2023-10-31T14:22:31;44.67;;;42.43;;
7729;SDS011;3908;52.310;7.230;2023-10-31T14:25:18;46.27;;;44.23;;
7729;SDS011;3908;52.310;7.230;2023-10-31T14:28:05;36.37;;;34.67;;
7729;SDS011;3908;52.310;7.230;2023-10-31T14:30:51;34.87;;;33.23;;
7729;SDS011;3908;52.310;7.230;2023-10-31T14:33:40;40.40;;;38.53;;
7729;SDS011;3908;52.310;7.230;2023-10-31T14:36:27;45.43;;;43.03;;
7729;SDS011;3908;52.310;7.230;2023-10-31T14:39:14;46.70;;;44.50;;
7729;SDS011;3908;52.310;7.230;2023-10-31T14:42:01;45.27;;;42.97;;
7729;SDS011;3908;52.310;7.230;2023-10-31T14:44:47;45.00;;;42.90;;
7729;SDS011;3908;52.310;7.230;2023-10-31T14:47:37;38.10;;;36.17;;
7729;SDS011;3908;52.310;7.230;2023-10-31T14:50:25;36.43;;;34.70;;
7729;SDS011;3908;52.310;7.230;2023-10-31T14:53:12;34.47;;;32.63;;
7729;SDS011;3908;52.310;7.230;2023-10-31T14:55:59;25.77;;;24.60;;
7729;SDS011;3908;52.310;7.230;2023-10-31T14:58:48;22.80;;;21.77;;
7729;SDS011;3908;52.310;7.230;2023-10-31T15:01:38;18.03;;;17.13;;
7729;SDS011;3908;52.310;7.230;2023-10-31T15:04:26;15.93;;;15.10;;
7729;SDS011;3908;52.310;7.230;2023-10-31T15:07:14;14.50;;;13.70;;
7729;SDS011;3908;52.310;7.230;2023-10-31T15:10:01;17.33;;;16.50;;
7729;SDS011;3908;52.310;7.230;2023-10-31T15:12:51;15.17;;;14.50;;
7729;SDS011;3908;52.310;7.230;2023-10-31T15:15:38;14.83;;;14.20;;
7729;SDS011;3908;52.310;7.230;2023-10-31T15:18:27;17.27;;;16.23;;
7729;SDS011;3908;52.310;7.230;2023-10-31T15:21:14;15.50;;;14.77;;
7729;SDS011;3908;52.310;7.230;2023-10-31T15:24:02;17.70;;;16.63;;
7729;SDS011;3908;52.310;7.230;2023-10-31T15:26:57;17.03;;;16.03;;
7729;SDS011;3908;52.310;7.230;2023-10-31T15:29:45;17.30;;;16.47;;
7729;SDS011;3908;52.310;7.230;2023-10-31T15:32:38;17.53;;;16.53;;
7729;SDS011;3908;52.310;7.230;2023-10-31T15:35:28;18.77;;;17.77;;
7729;SDS011;3908;52.310;7.230;2023-10-31T15:38:19;19.03;;;18.00;;
7729;SDS011;3908;52.310;7.230;2023-10-31T15:41:12;19.97;;;18.87;;
7729;SDS011;3908;52.310;7.230;2023-10-31T15:44:02;19.57;;;18.63;;
7729;SDS011;3908;52.310;7.230;2023-10-31T15:46:55;18.40;;;17.33;;
7729;SDS011;3908;52.310;7.230;2023-10-31T15:49:42;16.10;;;15.30;;
7729;SDS011;3908;52.310;7.230;2023-10-31T15:52:29;17.67;;;16.77;;
7729;SDS011;3908;52.310;7.230;2023-10-31T15:55:17;15.83;;;15.00;;
7729;SDS011;3908;52.310;7.230;2023-10-31T15:58:08;16.97;;;16.13;;
7729;SDS011;3908;52.310;7.230;2023-10-31T16:00:58;14.40;;;13.27;;
7729;SDS011;3908;52.310;7.230;2023-10-31T16:04:02;14.97;;;14.27;;
7729;SDS011;3908;52.310;7.230;2023-10-31T16:06:52;12.30;;;11.70;;
7729;SDS011;3908;52.310;7.230;2023-10-31T16:09:39;14.47;;;13.67;;
7729;SDS011;3908;52.310;7.230;2023-10-31T16:12:28;13.07;;;12.13;;
7729;SDS011;3908;52.310;7.230;2023-10-31T16:15:16;12.03;;;11.47;;
7729;SDS011;3908;52.310;7.230;2023-10-31T16:20:39;14.07;;;13.33;;
7729;SDS011;3908;52.310;7.230;2023-10-31T16:23:27;16.07;;;15.10;;
7729;SDS011;3908;52.310;7.230;2023-10-31T16:26:15;15.70;;;14.80;;
7729;SDS011;3908;52.310;7.230;2023-10-31T16:29:01;14.43;;;13.67;;
7729;SDS011;3908;52.310;7.230;2023-10-31T16:31:50;14.07;;;13.30;;
7729;SDS011;3908;52.310;7.230;2023-10-31T16:34:38;15.87;;;14.97;;
7729;SDS011;3908;52.310;7.230;2023-10-31T16:37:25;15.80;;;15.03;;
7729;SDS011;3908;52.310;7.230;2023-10-31T16:40:12;13.80;;;12.90;;
7729;SDS011;3908;52.310;7.230;2023-10-31T16:42:59;15.47;;;14.70;;
7729;SDS011;3908;52.310;7.230;2023-10-31T16:56:08;38.57;;;36.57;;
7729;SDS011;3908;52.310;7.230;2023-10-31T17:11:52;47.07;;;44.67;;
7729;SDS011;3908;52.310;7.230;2023-10-31T23:56:48;29.57;;;27.60;;
